createdAt,value
2019-04-07T00:00:36.092Z,59.10
2019-04-07T00:05:41.472Z,59.97
2019-04-07T00:10:46.872Z,57.83
2019-04-07T00:15:51.972Z,55.43
2019-04-07T00:20:56.737Z,56.60
2019-04-07T00:26:02.218Z,53.97
2019-04-07T00:31:07.095Z,56.83
2019-04-07T00:36:11.853Z,64.80
2019-04-07T00:41:16.746Z,55.13
2019-04-07T00:46:21.850Z,48.53
2019-04-07T00:51:26.760Z,47.87
2019-04-07T00:56:31.843Z,49.73
2019-04-07T01:01:37.181Z,43.93
2019-04-07T01:06:42.254Z,48.77
2019-04-07T01:11:47.443Z,39.33
2019-04-07T01:16:52.951Z,46.87
2019-04-07T01:21:58.993Z,56.13
2019-04-07T01:27:05.072Z,50.67
2019-04-07T01:32:10.318Z,45.47
2019-04-07T01:37:15.560Z,51.17
2019-04-07T01:42:25.576Z,61.00
2019-04-07T01:47:32.302Z,60.33
2019-04-07T01:52:53.580Z,56.90
2019-04-07T01:58:06.340Z,64.97
2019-04-07T02:03:13.216Z,65.17
2019-04-07T02:13:47.438Z,54.17
2019-04-07T02:19:02.850Z,71.43
2019-04-07T02:24:13.122Z,55.57
2019-04-07T02:29:35.897Z,54.63
2019-04-07T02:34:45.538Z,56.90
2019-04-07T02:39:52.350Z,52.50
2019-04-07T02:45:15.278Z,62.10
2019-04-07T02:50:27.757Z,56.40
2019-04-07T02:55:34.244Z,59.73
2019-04-07T03:00:57.735Z,57.43
2019-04-07T03:06:37.481Z,62.40
2019-04-07T03:11:31.389Z,58.13
2019-04-07T03:16:41.688Z,51.93
2019-04-07T03:22:03.692Z,48.57
2019-04-07T03:27:28.469Z,45.77
2019-04-07T03:32:54.081Z,44.83
2019-04-07T03:38:18.784Z,56.83
2019-04-07T03:43:31.731Z,48.00
2019-04-07T03:48:44.521Z,49.97
2019-04-07T03:53:56.018Z,49.00
2019-04-07T03:59:11.482Z,57.13
2019-04-07T04:04:18.888Z,69.43
2019-04-07T04:09:42.543Z,53.53
2019-04-07T04:15:01.739Z,47.40
2019-04-07T04:20:08.346Z,56.50
2019-04-07T04:25:13.814Z,48.13
2019-04-07T04:30:18.992Z,48.30
2019-04-07T04:35:24.588Z,45.70
2019-04-07T04:40:29.839Z,53.50
2019-04-07T04:45:36.266Z,49.47
2019-04-07T04:50:42.043Z,48.63
2019-04-07T04:55:47.276Z,49.60
2019-04-07T05:00:52.383Z,52.87
2019-04-07T05:05:57.796Z,52.77
2019-04-07T05:11:03.076Z,74.10
2019-04-07T05:16:08.308Z,63.63
2019-04-07T05:21:13.497Z,63.33
2019-04-07T05:26:18.859Z,65.93
2019-04-07T05:31:23.824Z,63.63
2019-04-07T05:36:28.649Z,67.73
2019-04-07T05:41:33.755Z,53.07
2019-04-07T05:46:42.334Z,68.10
2019-04-07T05:51:45.390Z,58.90
2019-04-07T05:56:50.320Z,54.43
2019-04-07T06:01:59.767Z,53.17
2019-04-07T06:07:01.847Z,50.30
2019-04-07T06:12:09.619Z,53.40
2019-04-07T06:17:13.575Z,44.93
2019-04-07T06:22:20.683Z,43.17
2019-04-07T06:27:24.805Z,42.60
2019-04-07T06:32:29.953Z,47.33
2019-04-07T06:37:36.274Z,47.53
2019-04-07T06:42:43.658Z,41.50
2019-04-07T06:47:59.374Z,37.50
2019-04-07T06:53:20.650Z,35.33
2019-04-07T06:58:38.805Z,37.07
2019-04-07T07:03:59.400Z,36.97
2019-04-07T07:09:15.534Z,36.50
2019-04-07T07:14:34.897Z,36.53
2019-04-07T07:19:55.643Z,44.87
2019-04-07T07:25:01.000Z,38.17
2019-04-07T07:30:07.737Z,39.27
2019-04-07T07:35:15.166Z,34.70
2019-04-07T07:40:19.282Z,39.70
2019-04-07T07:45:24.119Z,38.33
2019-04-07T07:50:29.917Z,46.30
2019-04-07T07:55:37.631Z,49.67
2019-04-07T08:00:43.336Z,40.03
2019-04-07T08:05:48.705Z,35.97
2019-04-07T08:10:56.166Z,36.07
2019-04-07T08:16:00.550Z,31.97
2019-04-07T08:21:05.650Z,42.87
2019-04-07T08:26:11.733Z,35.70
2019-04-07T08:31:21.105Z,34.83
2019-04-07T08:36:23.879Z,30.53
2019-04-07T08:41:28.874Z,46.03
2019-04-07T08:46:38.636Z,33.73
2019-04-07T08:51:40.423Z,34.60
2019-04-07T08:56:45.757Z,37.53
2019-04-07T09:01:52.782Z,37.63
2019-04-07T09:07:00.692Z,30.73
2019-04-07T09:12:03.888Z,30.93
2019-04-07T09:17:10.561Z,30.97
2019-04-07T09:22:32.741Z,28.90
2019-04-07T09:27:55.804Z,38.33
2019-04-07T09:33:05.961Z,30.73
2019-04-07T09:38:30.805Z,31.50
2019-04-07T09:43:46.515Z,30.67
2019-04-07T09:48:58.825Z,30.63
2019-04-07T09:54:08.201Z,35.47
2019-04-07T09:59:31.859Z,26.33
2019-04-07T10:04:54.804Z,34.27
2019-04-07T10:10:17.409Z,31.53
2019-04-07T10:15:24.523Z,33.03
2019-04-07T10:20:47.335Z,34.90
2019-04-07T10:25:57.247Z,30.93
2019-04-07T10:31:09.668Z,26.80
2019-04-07T10:36:22.788Z,29.97
2019-04-07T10:41:29.509Z,34.07
2019-04-07T10:46:52.185Z,35.87
2019-04-07T10:51:59.302Z,33.63
2019-04-07T10:57:06.548Z,25.07
2019-04-07T11:02:15.572Z,27.43
2019-04-07T11:07:28.208Z,22.50
2019-04-07T11:12:41.232Z,26.23
2019-04-07T11:18:04.476Z,27.97
2019-04-07T11:23:10.894Z,28.93
2019-04-07T11:28:20.835Z,31.90
2019-04-07T11:33:27.835Z,29.00
2019-04-07T11:38:46.832Z,23.50
2019-04-07T11:43:56.416Z,32.40
2019-04-07T11:49:19.401Z,25.63
2019-04-07T11:54:26.297Z,25.53
2019-04-07T11:59:51.279Z,23.90
2019-04-07T12:05:08.131Z,27.77
2019-04-07T12:10:33.194Z,30.90
2019-04-07T12:15:43.015Z,23.13
2019-04-07T12:20:56.257Z,20.23
2019-04-07T12:26:20.404Z,35.03
2019-04-07T12:31:36.179Z,23.20
2019-04-07T12:37:02.403Z,23.07
2019-04-07T12:42:13.565Z,22.10
2019-04-07T12:47:36.616Z,18.87
2019-04-07T12:52:43.085Z,23.20
2019-04-07T12:58:10.795Z,25.87
2019-04-07T13:03:33.183Z,17.57
2019-04-07T13:08:40.379Z,24.67
2019-04-07T13:13:53.099Z,23.27
2019-04-07T13:19:04.253Z,25.80
2019-04-07T13:24:12.920Z,26.53
2019-04-07T13:29:18.877Z,19.57
2019-04-07T13:34:41.731Z,25.23
2019-04-07T13:40:10.142Z,22.13
2019-04-07T13:45:24.777Z,20.33
2019-04-07T13:50:48.188Z,19.90
2019-04-07T13:56:16.657Z,19.63
2019-04-07T14:01:23.294Z,18.60
2019-04-07T14:06:32.869Z,20.33
2019-04-07T14:11:53.809Z,23.80
2019-04-07T14:17:06.286Z,25.80
2019-04-07T14:22:16.669Z,27.00
2019-04-07T14:27:38.433Z,25.07
2019-04-07T14:32:53.598Z,19.70
2019-04-07T14:38:03.710Z,19.37
2019-04-07T14:43:19.096Z,17.33
2019-04-07T14:48:34.805Z,25.90
2019-04-07T14:53:44.201Z,19.70
2019-04-07T14:58:53.922Z,23.40
2019-04-07T15:03:59.947Z,19.53
2019-04-07T15:09:10.649Z,17.57
2019-04-07T15:14:15.694Z,20.40
2019-04-07T15:19:20.483Z,20.03
2019-04-07T15:24:25.979Z,19.67
2019-04-07T15:29:31.080Z,22.90
2019-04-07T15:34:39.558Z,19.77
2019-04-07T15:39:42.781Z,22.87
2019-04-07T15:44:48.407Z,16.83
2019-04-07T15:49:54.082Z,32.03
2019-04-07T15:55:11.575Z,18.93
2019-04-07T16:00:19.530Z,21.77
2019-04-07T16:05:24.552Z,24.63
2019-04-07T16:10:30.168Z,25.23
2019-04-07T16:15:35.979Z,24.43
2019-04-07T16:20:41.695Z,26.40
2019-04-07T16:25:47.443Z,34.53
2019-04-07T16:30:52.493Z,33.20
2019-04-07T16:35:57.978Z,23.73
2019-04-07T16:41:02.945Z,24.33
2019-04-07T16:46:07.797Z,29.70
2019-04-07T16:51:13.415Z,31.10
2019-04-07T16:56:20.107Z,26.43
2019-04-07T17:01:25.730Z,31.43
2019-04-07T17:06:34.670Z,31.67
2019-04-07T17:11:40.718Z,35.37
2019-04-07T17:16:45.619Z,43.50
2019-04-07T17:21:51.825Z,33.47
2019-04-07T17:26:58.522Z,32.83
2019-04-07T17:32:06.027Z,34.53
2019-04-07T17:37:11.766Z,23.20
2019-04-07T17:42:20.171Z,27.80
2019-04-07T17:47:39.689Z,25.53
2019-04-07T17:53:03.059Z,32.07
2019-04-07T17:58:26.304Z,29.37
2019-04-07T18:03:39.077Z,37.13
2019-04-07T18:09:07.855Z,41.37
2019-04-07T18:14:15.856Z,53.70
2019-04-07T18:19:38.824Z,56.43
2019-04-07T18:24:48.701Z,54.70
2019-04-07T18:29:59.669Z,76.37
2019-04-07T18:35:20.066Z,235.20
2019-04-07T18:40:41.396Z,351.17
2019-04-07T18:45:49.086Z,351.23
2019-04-07T18:50:56.362Z,179.70
2019-04-07T18:56:09.850Z,85.70
2019-04-07T19:01:17.024Z,207.17
2019-04-07T19:06:23.715Z,225.93
2019-04-07T19:11:48.638Z,156.00
2019-04-07T19:17:11.518Z,146.83
2019-04-07T19:22:36.662Z,341.73
2019-04-07T19:28:02.371Z,169.33
2019-04-07T19:33:06.790Z,93.47
2019-04-07T19:38:27.352Z,333.97
2019-04-07T19:43:46.196Z,205.60
2019-04-07T19:48:52.693Z,98.77
2019-04-07T19:54:00.682Z,106.10
2019-04-07T19:59:19.592Z,105.37
2019-04-07T20:04:40.163Z,101.40
2019-04-07T20:10:03.103Z,96.30
2019-04-07T20:15:29.583Z,63.40
2019-04-07T20:20:42.036Z,101.07
2019-04-07T20:25:55.627Z,52.93
2019-04-07T20:31:09.092Z,61.97
2019-04-07T20:36:22.145Z,58.87
2019-04-07T20:41:23.962Z,44.37
2019-04-07T20:46:46.834Z,55.43
2019-04-07T20:52:11.289Z,47.43
2019-04-07T20:57:34.165Z,44.73
2019-04-07T21:02:46.481Z,54.27
2019-04-07T21:08:09.103Z,40.57
2019-04-07T21:13:24.876Z,40.83
2019-04-07T21:18:40.732Z,43.00
2019-04-07T21:23:48.025Z,48.57
2019-04-07T21:28:54.812Z,52.40
2019-04-07T21:34:07.001Z,55.70
2019-04-07T21:39:14.262Z,52.73
2019-04-07T21:44:28.535Z,47.03
2019-04-07T21:49:43.968Z,65.43
2019-04-07T21:54:55.598Z,61.53
2019-04-07T22:00:09.207Z,58.67
2019-04-07T22:05:25.958Z,61.37
2019-04-07T22:10:31.899Z,51.77
2019-04-07T22:15:45.819Z,165.27
2019-04-07T22:20:51.263Z,104.80
2019-04-07T22:25:54.734Z,62.60
2019-04-07T22:30:59.572Z,41.40
2019-04-07T22:36:04.400Z,61.57
2019-04-07T22:41:10.139Z,41.93
2019-04-07T22:46:19.520Z,54.57
2019-04-07T22:51:21.421Z,60.00
2019-04-07T22:56:26.259Z,45.07
2019-04-07T23:01:31.348Z,44.13
2019-04-07T23:06:36.354Z,48.63
2019-04-07T23:11:41.106Z,48.93
2019-04-07T23:16:46.457Z,50.70
2019-04-07T23:21:51.821Z,51.87
2019-04-07T23:26:56.470Z,73.70
2019-04-07T23:32:03.943Z,86.20
2019-04-07T23:37:08.887Z,85.67
2019-04-07T23:42:14.466Z,73.97
2019-04-07T23:47:19.536Z,77.80
2019-04-07T23:52:25.138Z,67.60
2019-04-07T23:57:30.258Z,80.37
